»·PEaware :: N47406 KSMX-KSBP

N47406 :: KSMX-KSBP

FLIGHT INFORMATION

Flight Status: Arrived
Operator: Privately registered:
United States
More flights under this callsign
Pilot: Anonymous 8231 (8231)
Aircraft: PIPER PA-28 CHEROKEE ARCHER
(P28A)
More flights by this aircraft type
Origin: KSMX Santa Maria Pub/Capt Hancock
United States
Destination: KSBP San Luis Co Regl
United States
More flights between these airports :: More routes between these airports
Route: +MQO
File this flight plan on PilotEdge
Remarks:
Altitude:
(Current/Filed)
4,000ft
Speed:
(Current/Filed)
105kts
Departed: 13-Feb-20 09:52 AM
Arrived: 13-Feb-20 10:30 AM
Distance/Time
Traveled:
22nm/0:38
Distance/Time
To Go:
Arrived

Flight Plot

Page will automatically refresh every two minutes.


Map Options




Map Legend


Flown Route
Filed Route
Departure Airport
Arrival Airport
Navaid (VOR, NDB)
Fix

Horizontal Profiles

Position Reports

Time Latitude Longitude Heading Altitude Ground
Speed
13-Feb-20 09:41 34.896952 -120.446158 273 264ft 0kts
13-Feb-20 09:42 34.896952 -120.446158 273 264ft 0kts
13-Feb-20 09:43 34.896952 -120.446158 273 264ft 0kts
13-Feb-20 09:44 34.896952 -120.446158 273 264ft 0kts
13-Feb-20 09:45 34.896952 -120.446158 273 264ft 0kts
13-Feb-20 09:46 34.896952 -120.446158 273 264ft 0kts
13-Feb-20 09:47 34.896952 -120.446158 273 264ft 0kts
13-Feb-20 09:48 34.896216 -120.447457 136 264ft 10kts
13-Feb-20 09:49 34.893898 -120.445648 180 264ft 0kts
13-Feb-20 09:50 34.893898 -120.445648 180 264ft 0kts
13-Feb-20 09:51 34.897574 -120.451614 319 440ft 71kts
13-Feb-20 09:52 34.912671 -120.453090 78 1384ft 78kts
13-Feb-20 09:53 34.903988 -120.427771 112 2329ft 82kts
13-Feb-20 09:54 34.892917 -120.399941 113 3334ft 80kts
13-Feb-20 09:55 34.888076 -120.374979 107 4027ft 87kts
13-Feb-20 09:56 34.870999 -120.381821 296 4108ft 100kts
13-Feb-20 09:57 34.890457 -120.402054 321 3960ft 102kts
13-Feb-20 09:58 34.910846 -120.422329 323 4037ft 98kts
13-Feb-20 09:59 34.931843 -120.442982 323 4053ft 101kts
13-Feb-20 10:00 34.953153 -120.463966 322 4011ft 101kts
13-Feb-20 10:01 34.973778 -120.484293 323 3984ft 100kts
13-Feb-20 10:02 34.993063 -120.506715 318 3947ft 102kts
13-Feb-20 10:03 35.012282 -120.528905 317 3900ft 102kts
13-Feb-20 10:04 35.031098 -120.550137 318 4015ft 102kts
13-Feb-20 10:05 35.050878 -120.572569 316 4068ft 105kts
13-Feb-20 10:06 35.071166 -120.595860 318 4073ft 104kts
13-Feb-20 10:07 35.092036 -120.618841 317 4065ft 105kts
13-Feb-20 10:08 35.112481 -120.642032 316 4000ft 106kts
13-Feb-20 10:09 35.133099 -120.666590 320 3953ft 97kts
13-Feb-20 10:10 35.152895 -120.688667 322 3998ft 99kts
13-Feb-20 10:11 35.173205 -120.710610 318 4064ft 99kts
13-Feb-20 10:12 35.193234 -120.733634 314 4069ft 100kts
13-Feb-20 10:13 35.214188 -120.756438 317 4019ft 104kts
13-Feb-20 10:14 35.234662 -120.780436 315 4024ft 101kts
13-Feb-20 10:15 35.254503 -120.804436 309 4047ft 104kts
13-Feb-20 10:16 35.273862 -120.830298 315 4018ft 102kts
13-Feb-20 10:18 35.293421 -120.855238 316 4008ft 101kts
13-Feb-20 10:19 35.314587 -120.878366 311 4007ft 100kts
13-Feb-20 10:20 35.336369 -120.895980 21 3975ft 106kts
13-Feb-20 10:21 35.338344 -120.864118 97 3371ft 100kts
13-Feb-20 10:22 35.333707 -120.832346 97 3090ft 90kts
13-Feb-20 10:23 35.327484 -120.800685 118 2853ft 99kts
13-Feb-20 10:24 35.315113 -120.772609 126 2479ft 92kts
13-Feb-20 10:25 35.300055 -120.748854 124 2222ft 89kts
13-Feb-20 10:26 35.285707 -120.724406 120 1857ft 90kts
13-Feb-20 10:27 35.271480 -120.699491 128 1274ft 93kts
13-Feb-20 10:28 35.257663 -120.675135 120 812ft 89kts
13-Feb-20 10:29 35.243417 -120.651685 127 307ft 79kts
13-Feb-20 10:30 35.237565 -120.643027 204 215ft 0kts
13-Feb-20 10:31 35.238040 -120.644662 303 215ft 12kts

Navigation Log

Ident Type
Flight plan parsing failed, navigation log unavailable